Ken Voyager — 3FXQ7 — position and weather

sailwx.info

Track history (hours):
 
Tides and Currents Weather Stations Pressure Air Temp Water Temp Dewpoint Dewpoint Depression Visibility Wind Speed Wind Dir Waves Ship Positions

Ken Voyager

Last reported at 2018-Feb-08 12:30 UTC. Time now 2018-Feb-24 22:15 UTC.
Position N 33°39' E 134°58'.
Warning: this ship's position is 16 days out of date.

Length 183 m; draft 7 m.

Type: Ship. MMSI: 373970000.

Date/timePositionNaut miles runAvg speedWind from/ knotsBaromVisibWave heightAir tempDewpointWater temp
2018-Feb-08 12:30N 33°39' E 134°58'1312.9
2018-Feb-08 11:30N 33°51' E 134°57'1313.1
2018-Feb-08 10:30N 34°05' E 134°57'713.1
2018-Feb-08 10:00N 34°11' E 134°57'2512.7
2018-Feb-08 08:00N 34°32' E 135°14'1010.0
2018-Feb-08 07:00N 34°38' E 135°24'0 0.0
2018-Feb-08 01:28N 34°38' E 135°25'0 0.0
2018-Feb-08 00:58N 34°38' E 135°25'0 0.0
2018-Feb-08 00:28N 34°38' E 135°25'0 0.0
2018-Feb-07 23:58N 34°38' E 135°25'0 0.0
2018-Feb-07 23:28N 34°38' E 135°25'0 0.0
2018-Feb-07 22:58N 34°38' E 135°25'0 0.0
2018-Feb-07 22:28N 34°38' E 135°25'0 0.0
2018-Feb-07 21:58N 34°38' E 135°25'0 0.0
2018-Feb-07 21:31N 34°38' E 135°25'0 0.0
2018-Feb-07 09:28N 34°38' E 135°25'0 0.0
2018-Feb-07 08:58N 34°38' E 135°25'0 0.0
2018-Feb-07 08:25N 34°38' E 135°25'0 0.0
2018-Feb-07 07:55N 34°38' E 135°25'0 0.0
2018-Feb-07 07:28N 34°38' E 135°25'0 0.0
2018-Feb-07 06:55N 34°38' E 135°25'0 0.0
2018-Feb-07 06:28N 34°38' E 135°25'0 0.0
2018-Feb-07 05:58N 34°38' E 135°25'0 0.0
2018-Feb-07 05:28N 34°38' E 135°25'0 0.0
2018-Feb-07 04:58N 34°38' E 135°25'0 0.0
2018-Feb-07 04:28N 34°38' E 135°25'0 0.0
2018-Feb-07 03:55N 34°38' E 135°25'0 0.0
2018-Feb-07 03:28N 34°38' E 135°25'0 0.0
2018-Feb-07 02:58N 34°38' E 135°25'0 0.0
2018-Feb-07 02:25N 34°38' E 135°25'0 0.0
2018-Feb-07 01:58N 34°38' E 135°25'0 0.0
2018-Feb-07 01:28N 34°38' E 135°25'0 0.0
2018-Feb-07 00:58N 34°38' E 135°25'0 0.0
2018-Feb-07 00:28N 34°38' E 135°25'0 0.0
2018-Feb-06 23:58N 34°38' E 135°25'0 0.0
2018-Feb-06 23:28N 34°38' E 135°25'0 0.0
2018-Feb-06 22:58N 34°38' E 135°25'1 2.6
2018-Feb-06 22:30N 34°38' E 135°23'5 9.1
2018-Feb-06 22:00N 34°35' E 135°19'0 0.5
2018-Feb-06 21:30N 34°35' E 135°19'0 0.1
2018-Feb-06 21:00N 34°35' E 135°19'0 0.0
2018-Feb-06 20:30N 34°35' E 135°19'0 0.1
2018-Feb-06 20:00N 34°35' E 135°19'0 0.1
2018-Feb-06 19:30N 34°35' E 135°19'0 0.1
2018-Feb-06 19:00N 34°35' E 135°19'0 0.0
2018-Feb-06 18:30N 34°35' E 135°19'0 0.0
2018-Feb-06 18:00N 34°35' E 135°19'0 0.0
2018-Feb-06 17:30N 34°35' E 135°19'0 0.0
2018-Feb-06 17:00N 34°35' E 135°19'0 0.1
2018-Feb-06 16:30N 34°35' E 135°19'0 0.0
2018-Feb-06 16:00N 34°35' E 135°19'0 0.0
2018-Feb-06 15:30N 34°35' E 135°19'0 0.0
2018-Feb-06 15:00N 34°35' E 135°19'0 0.0
2018-Feb-06 14:27N 34°35' E 135°19'0 0.0
2018-Feb-06 14:00N 34°35' E 135°19'0 0.0
2018-Feb-06 13:30N 34°35' E 135°19'0 0.0
2018-Feb-06 13:00N 34°35' E 135°19'0 0.0
2018-Feb-06 12:30N 34°35' E 135°19'0 0.0
2018-Feb-06 12:00N 34°35' E 135°19'0 0.0
2018-Feb-06 11:30N 34°35' E 135°19'0 0.1
2018-Feb-06 11:00N 34°35' E 135°19'0 0.0
2018-Feb-06 10:30N 34°35' E 135°19'0 0.0
2018-Feb-06 10:00N 34°35' E 135°19'10 6.5
2018-Feb-06 08:30N 34°28' E 135°11'713.8
2018-Feb-06 08:00N 34°23' E 135°05'713.1
2018-Feb-06 07:30N 34°18' E 134°60'30 9.7
2018-Feb-06 04:27N 33°48' E 135°00'612.3
2018-Feb-06 04:00N 33°43' E 135°02'612.2
2018-Feb-06 03:30N 33°37' E 135°04'712.3
2018-Feb-06 02:57N 33°32' E 135°10'712.9
2018-Feb-06 02:26N 33°29' E 135°17'612.7
2018-Feb-06 01:57N 33°26' E 135°23'5913.1
2018-Feb-05 21:29N 33°33' E 136°33'713.4
2018-Feb-05 20:59N 33°35' E 136°41'7613.2
2018-Feb-05 15:13N 34°08' E 138°04'312.8
2018-Feb-05 14:59N 34°09' E 138°07'612.7
2018-Feb-05 14:29N 34°13' E 138°13'612.0
2018-Feb-05 14:00N 34°15' E 138°20'812.3
2018-Feb-05 13:22N 34°18' E 138°28'812.6
2018-Feb-05 12:46N 34°22' E 138°37'311.3
2018-Feb-05 12:30N 34°23' E 138°40'612.0
2018-Feb-05 12:00N 34°26' E 138°46'612.3
2018-Feb-05 11:28N 34°29' E 138°53'1111.2
2018-Feb-05 10:30N 34°33' E 139°06'511.1
2018-Feb-05 10:00N 34°35' E 139°12'511.0
2018-Feb-05 09:30N 34°36' E 139°18'610.9
2018-Feb-05 09:00N 34°38' E 139°25'510.6
2018-Feb-05 08:30N 34°40' E 139°31'711.2
2018-Feb-05 07:53N 34°46' E 139°35'512.5
2018-Feb-05 07:29N 34°50' E 139°37'612.5
2018-Feb-05 06:59N 34°56' E 139°40'612.5
2018-Feb-05 06:30N 35°02' E 139°42'1111.3
2018-Feb-05 05:30N 35°13' E 139°46'611.7
2018-Feb-05 05:00N 35°18' E 139°44'611.8
2018-Feb-05 04:31N 35°24' E 139°42'4 8.6
2018-Feb-05 04:00N 35°28' E 139°43'0 0.0
2018-Feb-05 03:29N 35°28' E 139°43'0 0.0
2018-Feb-05 02:59N 35°28' E 139°43'0 0.0
2018-Feb-05 02:29N 35°28' E 139°43'0 0.0
2018-Feb-05 01:59N 35°28' E 139°43'0 0.0
2018-Feb-05 01:29N 35°28' E 139°43'0 0.0
2018-Feb-05 00:59N 35°28' E 139°43'0 0.0
2018-Feb-05 00:29N 35°28' E 139°43'0 0.0
2018-Feb-04 23:59N 35°28' E 139°43'0 0.0
2018-Feb-04 23:29N 35°28' E 139°43'0 0.0
2018-Feb-04 22:59N 35°28' E 139°43'0 0.0
2018-Feb-04 22:26N 35°28' E 139°43'0 0.0
2018-Feb-04 21:59N 35°28' E 139°43'0 0.0
2018-Feb-04 21:29N 35°28' E 139°43'0 0.0
2018-Feb-04 20:59N 35°28' E 139°43'0 0.0
2018-Feb-04 19:59N 35°28' E 139°43'0 0.0
2018-Feb-04 19:29N 35°28' E 139°43'0 0.0
2018-Feb-04 18:59N 35°28' E 139°43'0 0.0
2018-Feb-04 18:26N 35°28' E 139°43'0 0.0
2018-Feb-04 17:59N 35°28' E 139°43'0 0.0
2018-Feb-04 17:29N 35°28' E 139°43'0 0.0
2018-Feb-04 15:29N 35°28' E 139°43'0 0.0
2018-Feb-04 14:59N 35°28' E 139°43'0 0.0
2018-Feb-04 14:29N 35°28' E 139°43'0 0.0
2018-Feb-04 13:59N 35°28' E 139°43'0 0.0
2018-Feb-04 13:29N 35°28' E 139°43'0 0.0
2018-Feb-04 12:59N 35°28' E 139°43'0 0.0
2018-Feb-04 12:29N 35°28' E 139°43'0 0.0
2018-Feb-04 11:59N 35°28' E 139°43'0 0.0
2018-Feb-04 11:29N 35°28' E 139°43'0 0.0
2018-Feb-04 09:59N 35°28' E 139°43'0 0.0
2018-Feb-04 08:59N 35°28' E 139°43'0 0.0
2018-Feb-04 08:29N 35°28' E 139°43'0 0.0
2018-Feb-04 07:59N 35°28' E 139°43'0 0.0
2018-Feb-04 07:29N 35°28' E 139°43'0 0.0
2018-Feb-04 06:59N 35°28' E 139°43'0 0.0
2018-Feb-04 06:29N 35°28' E 139°43'0 0.0
2018-Feb-04 05:59N 35°28' E 139°43'0 0.0
2018-Feb-04 05:29N 35°28' E 139°43'0 0.0
2018-Feb-04 04:59N 35°28' E 139°43'0 0.0
2018-Feb-04 04:29N 35°28' E 139°43'0 0.0
2018-Feb-04 03:59N 35°28' E 139°43'0 0.0
2018-Feb-04 03:29N 35°28' E 139°43'0 0.0
2018-Feb-04 02:59N 35°28' E 139°43'0 0.0
2018-Feb-04 02:29N 35°28' E 139°43'0 0.0
2018-Feb-04 01:59N 35°28' E 139°43'0 0.0
2018-Feb-04 01:29N 35°28' E 139°43'0 0.0
2018-Feb-04 00:59N 35°28' E 139°43'0 0.0
2018-Feb-04 00:29N 35°28' E 139°43'0 0.0
2018-Feb-03 23:59N 35°28' E 139°43'0 0.0
2018-Feb-03 23:29N 35°28' E 139°43'0 0.0
2018-Feb-03 22:59N 35°28' E 139°43'0 0.0
2018-Feb-03 22:29N 35°28' E 139°43'0 0.0
2018-Feb-03 21:59N 35°28' E 139°43'0 0.0
2018-Feb-03 21:29N 35°28' E 139°43'0 0.0
2018-Feb-03 20:59N 35°28' E 139°43'0 0.0
2018-Feb-03 20:29N 35°28' E 139°43'0 0.0
2018-Feb-03 19:59N 35°28' E 139°43'0 0.0
2018-Feb-03 18:29N 35°28' E 139°43'0 0.0
2018-Feb-03 17:59N 35°28' E 139°43'0 0.0
2018-Feb-03 17:29N 35°28' E 139°43'0 0.0
2018-Feb-03 16:59N 35°28' E 139°43'0 0.0
2018-Feb-03 15:59N 35°28' E 139°43'0 0.0
2018-Feb-03 15:29N 35°28' E 139°43'0 0.0
2018-Feb-03 14:59N 35°28' E 139°43'0 0.0
2018-Feb-03 14:29N 35°28' E 139°43'0 0.0
2018-Feb-03 13:59N 35°28' E 139°43'0 0.0
2018-Feb-03 13:29N 35°28' E 139°43'0 0.0
2018-Feb-03 12:59N 35°28' E 139°43'0 0.0
2018-Feb-03 12:23N 35°28' E 139°43'0 0.0
2018-Feb-03 11:59N 35°28' E 139°43'0 0.0
2018-Feb-03 11:29N 35°28' E 139°43'0 0.0
2018-Feb-03 10:59N 35°28' E 139°43'0 0.0
2018-Feb-03 10:29N 35°28' E 139°43'0 0.0
2018-Feb-03 09:59N 35°28' E 139°43'0 0.0
2018-Feb-03 09:29N 35°28' E 139°43'0 0.0
2018-Feb-03 08:59N 35°28' E 139°43'0 0.0
2018-Feb-03 08:29N 35°28' E 139°43'0 0.0
2018-Feb-03 07:59N 35°28' E 139°43'0 0.0
2018-Feb-03 06:29N 35°28' E 139°43'0 0.0
2018-Feb-03 05:59N 35°28' E 139°43'0 0.0
2018-Feb-03 05:29N 35°28' E 139°43'0 0.0
2018-Feb-03 04:59N 35°28' E 139°43'0 0.0
2018-Feb-03 03:59N 35°28' E 139°43'0 0.0
2018-Feb-03 03:29N 35°28' E 139°43'0 0.0
2018-Feb-03 01:59N 35°28' E 139°43'0 0.0
2018-Feb-03 01:29N 35°28' E 139°43'0 0.0
2018-Feb-03 00:59N 35°28' E 139°43'0 0.0
2018-Feb-03 00:29N 35°28' E 139°43'0 0.0
2018-Feb-02 23:59N 35°28' E 139°43'0 0.0
2018-Feb-02 23:29N 35°28' E 139°43'0 0.0
2018-Feb-02 22:59N 35°28' E 139°43'0 0.0
2018-Feb-02 22:29N 35°28' E 139°43'0 0.0
2018-Feb-02 21:59N 35°28' E 139°43'0 0.0
2018-Feb-02 21:29N 35°28' E 139°43'0 0.0
2018-Feb-02 20:59N 35°28' E 139°43'0 0.0
2018-Feb-02 20:29N 35°28' E 139°43'0 0.0
2018-Feb-02 19:59N 35°28' E 139°43'0 0.0
2018-Feb-02 18:59N 35°28' E 139°43'0 0.0
2018-Feb-02 18:29N 35°28' E 139°43'0 0.0
2018-Feb-02 17:59N 35°28' E 139°43'0 0.0
2018-Feb-02 17:29N 35°28' E 139°43'0 0.0
2018-Feb-02 16:59N 35°28' E 139°43'0 0.0
2018-Feb-02 16:29N 35°28' E 139°43'0 0.0
2018-Feb-02 15:29N 35°28' E 139°43'0 0.0
2018-Feb-02 14:29N 35°28' E 139°43'0 0.0
2018-Feb-02 13:59N 35°28' E 139°43'0 0.0
2018-Feb-02 13:29N 35°28' E 139°43'0 0.0
2018-Feb-02 12:59N 35°28' E 139°43'0 0.0
2018-Feb-02 12:29N 35°28' E 139°43'0 0.0
2018-Feb-02 11:59N 35°28' E 139°43'0 0.0
2018-Feb-02 11:29N 35°28' E 139°43'0 0.0
2018-Feb-02 10:59N 35°28' E 139°43'0 0.0
2018-Feb-02 10:29N 35°28' E 139°43'0 0.0
2018-Feb-02 09:59N 35°28' E 139°43'0 0.0
2018-Feb-02 09:29N 35°28' E 139°43'0 0.0
2018-Feb-02 08:59N 35°28' E 139°43'0 0.0
2018-Feb-02 08:29N 35°28' E 139°43'0 0.0
2018-Feb-02 07:59N 35°28' E 139°43'0 0.0
2018-Feb-02 07:29N 35°28' E 139°43'0 0.0
2018-Feb-02 06:59N 35°28' E 139°43'0 0.0
2018-Feb-02 06:29N 35°28' E 139°43'0 0.0
2018-Feb-02 05:59N 35°28' E 139°43'0 0.0
2018-Feb-02 05:29N 35°28' E 139°43'0 0.0
2018-Feb-02 04:59N 35°28' E 139°43'0 0.0
2018-Feb-02 04:29N 35°28' E 139°43'0 0.0
2018-Feb-02 03:59N 35°28' E 139°43'0 0.0
2018-Feb-02 03:29N 35°28' E 139°43'0 0.0
2018-Feb-02 02:59N 35°28' E 139°43'0 0.0
2018-Feb-02 02:29N 35°28' E 139°43'0 0.0
2018-Feb-02 01:59N 35°28' E 139°43'0 0.0
2018-Feb-02 01:29N 35°28' E 139°43'0 0.0
2018-Feb-02 00:59N 35°28' E 139°43'0 0.0
2018-Feb-02 00:26N 35°28' E 139°43'0 0.0
2018-Feb-01 23:59N 35°28' E 139°43'0 0.0
2018-Feb-01 23:29N 35°28' E 139°43'0 0.0
2018-Feb-01 22:59N 35°28' E 139°43'0 0.0
2018-Feb-01 21:59N 35°28' E 139°43'0 0.0
2018-Feb-01 21:29N 35°28' E 139°43'0 0.0
2018-Feb-01 19:29N 35°28' E 139°43'0 0.0
2018-Feb-01 18:59N 35°28' E 139°43'0 0.0
2018-Feb-01 18:29N 35°28' E 139°43'0 0.0
2018-Feb-01 17:59N 35°28' E 139°43'0 0.0
2018-Feb-01 17:29N 35°28' E 139°43'0 0.0
2018-Feb-01 16:59N 35°28' E 139°43'0 0.0
2018-Feb-01 16:29N 35°28' E 139°43'0 0.0
2018-Feb-01 15:59N 35°28' E 139°43'0 0.0
2018-Feb-01 15:29N 35°28' E 139°43'0 0.0
2018-Feb-01 14:59N 35°28' E 139°43'0 0.0
2018-Feb-01 13:29N 35°28' E 139°43'0 0.0
2018-Feb-01 12:59N 35°28' E 139°43'0 0.0
2018-Feb-01 12:29N 35°28' E 139°43'0 0.0
2018-Feb-01 11:59N 35°28' E 139°43'0 0.0
2018-Feb-01 10:59N 35°28' E 139°43'0 0.0
2018-Feb-01 10:29N 35°28' E 139°43'0 0.0
2018-Feb-01 09:59N 35°28' E 139°43'0 0.0
2018-Feb-01 09:29N 35°28' E 139°43'0 0.0
2018-Feb-01 08:59N 35°28' E 139°43'0 0.0
2018-Feb-01 08:29N 35°28' E 139°43'0 0.0
2018-Feb-01 07:29N 35°28' E 139°43'0 0.0
2018-Feb-01 06:59N 35°28' E 139°43'0 0.0
2018-Feb-01 06:29N 35°28' E 139°43'0 0.0
2018-Feb-01 05:59N 35°28' E 139°43'0 0.0
2018-Feb-01 05:29N 35°28' E 139°43'0 0.0
2018-Feb-01 04:59N 35°28' E 139°43'0 0.0
2018-Feb-01 04:29N 35°28' E 139°43'0 0.0
2018-Feb-01 03:59N 35°28' E 139°43'0 0.0
2018-Feb-01 02:59N 35°28' E 139°43'0 0.0
2018-Feb-01 02:29N 35°28' E 139°43'0 0.0
2018-Feb-01 01:59N 35°28' E 139°43'0 0.0
2018-Feb-01 01:29N 35°28' E 139°43'0 0.0
2018-Feb-01 00:59N 35°28' E 139°43'0 0.0
2018-Feb-01 00:29N 35°28' E 139°43'0 0.0
2018-Jan-31 23:59N 35°28' E 139°43'0 0.0
2018-Jan-31 22:59N 35°28' E 139°43'0 0.0
2018-Jan-31 22:29N 35°28' E 139°43'0 0.0
2018-Jan-31 20:59N 35°28' E 139°43'0 0.0
2018-Jan-31 20:29N 35°28' E 139°43'0 0.0
2018-Jan-31 19:59N 35°28' E 139°43'0 0.0
2018-Jan-31 19:29N 35°28' E 139°43'0 0.0
2018-Jan-31 18:56N 35°28' E 139°43'0 0.0
2018-Jan-31 18:29N 35°28' E 139°43'0 0.0
2018-Jan-31 17:59N 35°28' E 139°43'0 0.0
2018-Jan-31 17:26N 35°28' E 139°43'0 0.0
2018-Jan-31 16:59N 35°28' E 139°43'0 0.0
2018-Jan-31 16:26N 35°28' E 139°43'0 0.0
2018-Jan-31 15:59N 35°28' E 139°43'0 0.0
2018-Jan-31 15:29N 35°28' E 139°43'0 0.0
2018-Jan-31 14:56N 35°28' E 139°43'0 0.0
2018-Jan-31 14:29N 35°28' E 139°43'0 0.0
2018-Jan-31 12:56N 35°28' E 139°43'0 0.0
2018-Jan-31 12:29N 35°28' E 139°43'0 0.0
2018-Jan-31 11:59N 35°28' E 139°43'0 0.0
2018-Jan-31 11:20N 35°28' E 139°43'0 0.0
2018-Jan-31 10:59N 35°28' E 139°43'0 0.0
2018-Jan-31 10:29N 35°28' E 139°43'0 0.0
2018-Jan-31 09:59N 35°28' E 139°43'0 0.0
2018-Jan-31 09:29N 35°28' E 139°43'0 0.0
2018-Jan-31 08:59N 35°28' E 139°43'0 0.0
2018-Jan-31 08:26N 35°28' E 139°43'0 0.0
2018-Jan-31 07:59N 35°28' E 139°43'0 0.0
2018-Jan-31 07:29N 35°28' E 139°43'0 0.0
2018-Jan-31 06:59N 35°28' E 139°43'0 0.0
2018-Jan-31 06:29N 35°28' E 139°43'0 0.0
2018-Jan-31 05:59N 35°28' E 139°43'0 0.0
2018-Jan-31 05:26N 35°28' E 139°43'0 0.0
2018-Jan-31 04:56N 35°28' E 139°43'0 0.0
2018-Jan-31 04:29N 35°28' E 139°43'0 0.0
2018-Jan-31 03:59N 35°28' E 139°43'0 0.0
2018-Jan-31 03:29N 35°28' E 139°43'0 0.0
2018-Jan-31 02:59N 35°28' E 139°43'0 0.0
2018-Jan-31 02:29N 35°28' E 139°43'0 0.0
2018-Jan-31 01:59N 35°28' E 139°43'0 0.0
2018-Jan-31 01:29N 35°28' E 139°43'0 0.0
2018-Jan-31 00:59N 35°28' E 139°43'0 0.0
2018-Jan-30 23:59N 35°28' E 139°43'0 0.0
2018-Jan-30 23:29N 35°28' E 139°43'0 0.0
2018-Jan-30 22:59N 35°28' E 139°43'0 0.0
2018-Jan-30 22:29N 35°28' E 139°43'0 0.0
2018-Jan-30 21:29N 35°28' E 139°43'0 0.0
2018-Jan-30 20:59N 35°28' E 139°43'0 0.0
2018-Jan-30 20:29N 35°28' E 139°43'0 0.0
2018-Jan-30 19:59N 35°28' E 139°43'0 0.0
2018-Jan-30 19:29N 35°28' E 139°43'0 0.0
2018-Jan-30 18:59N 35°28' E 139°43'0 0.0
2018-Jan-30 18:29N 35°28' E 139°43'0 0.0
2018-Jan-30 17:59N 35°28' E 139°43'0 0.0
2018-Jan-30 17:29N 35°28' E 139°43'0 0.0
2018-Jan-30 16:59N 35°28' E 139°43'0 0.0
2018-Jan-30 16:29N 35°28' E 139°43'0 0.0
2018-Jan-30 15:59N 35°28' E 139°43'0 0.0
2018-Jan-30 15:29N 35°28' E 139°43'0 0.0
2018-Jan-30 14:59N 35°28' E 139°43'0 0.0
2018-Jan-30 14:29N 35°28' E 139°43'0 0.0
2018-Jan-30 13:26N 35°28' E 139°43'0 0.0
2018-Jan-30 12:59N 35°28' E 139°43'0 0.0
2018-Jan-30 12:29N 35°28' E 139°43'0 0.0
2018-Jan-30 11:59N 35°28' E 139°43'0 0.0
2018-Jan-30 11:29N 35°28' E 139°43'0 0.0
2018-Jan-30 10:29N 35°28' E 139°43'0 0.0
2018-Jan-30 09:29N 35°28' E 139°43'0 0.0
2018-Jan-30 08:59N 35°28' E 139°43'0 0.0
2018-Jan-30 08:29N 35°28' E 139°43'0 0.0
2018-Jan-30 07:59N 35°28' E 139°43'0 0.0
2018-Jan-30 07:29N 35°28' E 139°43'0 0.0
2018-Jan-30 06:59N 35°28' E 139°43'0 0.0
2018-Jan-30 06:29N 35°28' E 139°43'0 0.0
2018-Jan-30 05:59N 35°28' E 139°43'0 0.0
2018-Jan-30 05:29N 35°28' E 139°43'0 0.0
2018-Jan-30 04:59N 35°28' E 139°43'0 0.0
2018-Jan-30 04:29N 35°28' E 139°43'0 0.0
2018-Jan-30 03:59N 35°28' E 139°43'0 0.0
2018-Jan-30 03:29N 35°28' E 139°43'0 0.0
2018-Jan-30 02:59N 35°28' E 139°43'0 0.0
2018-Jan-30 02:29N 35°28' E 139°43'0 0.0
2018-Jan-30 01:56N 35°28' E 139°43'0 0.0
2018-Jan-30 01:29N 35°28' E 139°43'0 0.0
2018-Jan-30 00:59N 35°28' E 139°43'0 0.0
2018-Jan-30 00:29N 35°28' E 139°43'0 0.0
2018-Jan-29 23:59N 35°28' E 139°43'0 0.0
2018-Jan-29 23:29N 35°28' E 139°43'0 0.0
2018-Jan-29 22:56N 35°28' E 139°43'0 0.0
2018-Jan-29 22:29N 35°28' E 139°43'0 0.0
2018-Jan-29 21:59N 35°28' E 139°43'0 0.0
2018-Jan-29 21:30N 35°28' E 139°43'0 0.0
2018-Jan-29 20:59N 35°28' E 139°43'0 0.0
2018-Jan-29 20:29N 35°28' E 139°43'0 0.1
2018-Jan-29 19:59N 35°28' E 139°43'0 0.0
2018-Jan-29 19:29N 35°28' E 139°43'0 0.1
2018-Jan-29 18:59N 35°28' E 139°43'0 0.0
2018-Jan-29 18:29N 35°28' E 139°43'0 0.1
2018-Jan-29 17:59N 35°28' E 139°43'0 0.0
2018-Jan-29 17:29N 35°28' E 139°43'0 0.0
2018-Jan-29 16:59N 35°28' E 139°43'0 0.0
2018-Jan-29 16:29N 35°28' E 139°43'0 0.0
2018-Jan-29 15:59N 35°28' E 139°43'0 0.0
2018-Jan-29 15:29N 35°28' E 139°43'0 0.1
2018-Jan-29 14:59N 35°28' E 139°43'0 0.1
2018-Jan-29 14:29N 35°28' E 139°43'0 0.0
2018-Jan-29 13:59N 35°28' E 139°43'0 0.0
2018-Jan-29 13:29N 35°28' E 139°43'0 0.0
2018-Jan-29 12:59N 35°28' E 139°43'  
Track history (hours):
 
Tides and Currents Weather Stations Pressure Air Temp Water Temp Dewpoint Dewpoint Depression Visibility Wind Speed Wind Dir Waves Ship Positions

Ken Voyager

Last reported at 2018-Feb-08 12:30 UTC. Time now 2018-Feb-24 22:15 UTC.
Position N 33°39' E 134°58'.
Warning: this ship's position is 16 days out of date.

Length 183 m; draft 7 m.

Type: Ship. MMSI: 373970000.

Date/timePositionNaut miles runAvg speedWind from/ knotsBaromVisibWave heightAir tempDewpointWater temp
2018-Feb-08 12:30N 33°39' E 134°58'1312.9
2018-Feb-08 11:30N 33°51' E 134°57'1313.1
2018-Feb-08 10:30N 34°05' E 134°57'713.1
2018-Feb-08 10:00N 34°11' E 134°57'2512.7
2018-Feb-08 08:00N 34°32' E 135°14'1010.0
2018-Feb-08 07:00N 34°38' E 135°24'0 0.0
2018-Feb-08 01:28N 34°38' E 135°25'0 0.0
2018-Feb-08 00:58N 34°38' E 135°25'0 0.0
2018-Feb-08 00:28N 34°38' E 135°25'0 0.0
2018-Feb-07 23:58N 34°38' E 135°25'0 0.0
2018-Feb-07 23:28N 34°38' E 135°25'0 0.0
2018-Feb-07 22:58N 34°38' E 135°25'0 0.0
2018-Feb-07 22:28N 34°38' E 135°25'0 0.0
2018-Feb-07 21:58N 34°38' E 135°25'0 0.0
2018-Feb-07 21:31N 34°38' E 135°25'0 0.0
2018-Feb-07 09:28N 34°38' E 135°25'0 0.0
2018-Feb-07 08:58N 34°38' E 135°25'0 0.0
2018-Feb-07 08:25N 34°38' E 135°25'0 0.0
2018-Feb-07 07:55N 34°38' E 135°25'0 0.0
2018-Feb-07 07:28N 34°38' E 135°25'0 0.0
2018-Feb-07 06:55N 34°38' E 135°25'0 0.0
2018-Feb-07 06:28N 34°38' E 135°25'0 0.0
2018-Feb-07 05:58N 34°38' E 135°25'0 0.0
2018-Feb-07 05:28N 34°38' E 135°25'0 0.0
2018-Feb-07 04:58N 34°38' E 135°25'0 0.0
2018-Feb-07 04:28N 34°38' E 135°25'0 0.0
2018-Feb-07 03:55N 34°38' E 135°25'0 0.0
2018-Feb-07 03:28N 34°38' E 135°25'0 0.0
2018-Feb-07 02:58N 34°38' E 135°25'0 0.0
2018-Feb-07 02:25N 34°38' E 135°25'0 0.0
2018-Feb-07 01:58N 34°38' E 135°25'0 0.0
2018-Feb-07 01:28N 34°38' E 135°25'0 0.0
2018-Feb-07 00:58N 34°38' E 135°25'0 0.0
2018-Feb-07 00:28N 34°38' E 135°25'0 0.0
2018-Feb-06 23:58N 34°38' E 135°25'0 0.0
2018-Feb-06 23:28N 34°38' E 135°25'0 0.0
2018-Feb-06 22:58N 34°38' E 135°25'1 2.6
2018-Feb-06 22:30N 34°38' E 135°23'5 9.1
2018-Feb-06 22:00N 34°35' E 135°19'0 0.5
2018-Feb-06 21:30N 34°35' E 135°19'0 0.1
2018-Feb-06 21:00N 34°35' E 135°19'0 0.0
2018-Feb-06 20:30N 34°35' E 135°19'0 0.1
2018-Feb-06 20:00N 34°35' E 135°19'0 0.1
2018-Feb-06 19:30N 34°35' E 135°19'0 0.1
2018-Feb-06 19:00N 34°35' E 135°19'0 0.0
2018-Feb-06 18:30N 34°35' E 135°19'0 0.0
2018-Feb-06 18:00N 34°35' E 135°19'0 0.0
2018-Feb-06 17:30N 34°35' E 135°19'0 0.0
2018-Feb-06 17:00N 34°35' E 135°19'0 0.1
2018-Feb-06 16:30N 34°35' E 135°19'0 0.0
2018-Feb-06 16:00N 34°35' E 135°19'0 0.0
2018-Feb-06 15:30N 34°35' E 135°19'0 0.0
2018-Feb-06 15:00N 34°35' E 135°19'0 0.0
2018-Feb-06 14:27N 34°35' E 135°19'0 0.0
2018-Feb-06 14:00N 34°35' E 135°19'0 0.0
2018-Feb-06 13:30N 34°35' E 135°19'0 0.0
2018-Feb-06 13:00N 34°35' E 135°19'0 0.0
2018-Feb-06 12:30N 34°35' E 135°19'0 0.0
2018-Feb-06 12:00N 34°35' E 135°19'0 0.0
2018-Feb-06 11:30N 34°35' E 135°19'0 0.1
2018-Feb-06 11:00N 34°35' E 135°19'0 0.0
2018-Feb-06 10:30N 34°35' E 135°19'0 0.0
2018-Feb-06 10:00N 34°35' E 135°19'10 6.5
2018-Feb-06 08:30N 34°28' E 135°11'713.8
2018-Feb-06 08:00N 34°23' E 135°05'713.1
2018-Feb-06 07:30N 34°18' E 134°60'30 9.7
2018-Feb-06 04:27N 33°48' E 135°00'612.3
2018-Feb-06 04:00N 33°43' E 135°02'612.2
2018-Feb-06 03:30N 33°37' E 135°04'712.3
2018-Feb-06 02:57N 33°32' E 135°10'712.9
2018-Feb-06 02:26N 33°29' E 135°17'612.7
2018-Feb-06 01:57N 33°26' E 135°23'5913.1
2018-Feb-05 21:29N 33°33' E 136°33'713.4
2018-Feb-05 20:59N 33°35' E 136°41'7613.2
2018-Feb-05 15:13N 34°08' E 138°04'312.8
2018-Feb-05 14:59N 34°09' E 138°07'612.7
2018-Feb-05 14:29N 34°13' E 138°13'612.0
2018-Feb-05 14:00N 34°15' E 138°20'812.3
2018-Feb-05 13:22N 34°18' E 138°28'812.6
2018-Feb-05 12:46N 34°22' E 138°37'311.3
2018-Feb-05 12:30N 34°23' E 138°40'612.0
2018-Feb-05 12:00N 34°26' E 138°46'612.3
2018-Feb-05 11:28N 34°29' E 138°53'1111.2
2018-Feb-05 10:30N 34°33' E 139°06'511.1
2018-Feb-05 10:00N 34°35' E 139°12'511.0
2018-Feb-05 09:30N 34°36' E 139°18'610.9
2018-Feb-05 09:00N 34°38' E 139°25'510.6
2018-Feb-05 08:30N 34°40' E 139°31'711.2
2018-Feb-05 07:53N 34°46' E 139°35'512.5
2018-Feb-05 07:29N 34°50' E 139°37'612.5
2018-Feb-05 06:59N 34°56' E 139°40'612.5
2018-Feb-05 06:30N 35°02' E 139°42'1111.3
2018-Feb-05 05:30N 35°13' E 139°46'611.7
2018-Feb-05 05:00N 35°18' E 139°44'611.8
2018-Feb-05 04:31N 35°24' E 139°42'4 8.6
2018-Feb-05 04:00N 35°28' E 139°43'0 0.0
2018-Feb-05 03:29N 35°28' E 139°43'0 0.0
2018-Feb-05 02:59N 35°28' E 139°43'0 0.0
2018-Feb-05 02:29N 35°28' E 139°43'0 0.0
2018-Feb-05 01:59N 35°28' E 139°43'0 0.0
2018-Feb-05 01:29N 35°28' E 139°43'0 0.0
2018-Feb-05 00:59N 35°28' E 139°43'0 0.0
2018-Feb-05 00:29N 35°28' E 139°43'0 0.0
2018-Feb-04 23:59N 35°28' E 139°43'0 0.0
2018-Feb-04 23:29N 35°28' E 139°43'0 0.0
2018-Feb-04 22:59N 35°28' E 139°43'0 0.0
2018-Feb-04 22:26N 35°28' E 139°43'0 0.0
2018-Feb-04 21:59N 35°28' E 139°43'0 0.0
2018-Feb-04 21:29N 35°28' E 139°43'0 0.0
2018-Feb-04 20:59N 35°28' E 139°43'0 0.0
2018-Feb-04 19:59N 35°28' E 139°43'0 0.0
2018-Feb-04 19:29N 35°28' E 139°43'0 0.0
2018-Feb-04 18:59N 35°28' E 139°43'0 0.0
2018-Feb-04 18:26N 35°28' E 139°43'0 0.0
2018-Feb-04 17:59N 35°28' E 139°43'0 0.0
2018-Feb-04 17:29N 35°28' E 139°43'0 0.0
2018-Feb-04 15:29N 35°28' E 139°43'0 0.0
2018-Feb-04 14:59N 35°28' E 139°43'0 0.0
2018-Feb-04 14:29N 35°28' E 139°43'0 0.0
2018-Feb-04 13:59N 35°28' E 139°43'0 0.0
2018-Feb-04 13:29N 35°28' E 139°43'0 0.0
2018-Feb-04 12:59N 35°28' E 139°43'0 0.0
2018-Feb-04 12:29N 35°28' E 139°43'0 0.0
2018-Feb-04 11:59N 35°28' E 139°43'0 0.0
2018-Feb-04 11:29N 35°28' E 139°43'0 0.0
2018-Feb-04 09:59N 35°28' E 139°43'0 0.0
2018-Feb-04 08:59N 35°28' E 139°43'0 0.0
2018-Feb-04 08:29N 35°28' E 139°43'0 0.0
2018-Feb-04 07:59N 35°28' E 139°43'0 0.0
2018-Feb-04 07:29N 35°28' E 139°43'0 0.0
2018-Feb-04 06:59N 35°28' E 139°43'0 0.0
2018-Feb-04 06:29N 35°28' E 139°43'0 0.0
2018-Feb-04 05:59N 35°28' E 139°43'0 0.0
2018-Feb-04 05:29N 35°28' E 139°43'0 0.0
2018-Feb-04 04:59N 35°28' E 139°43'0 0.0
2018-Feb-04 04:29N 35°28' E 139°43'0 0.0
2018-Feb-04 03:59N 35°28' E 139°43'0 0.0
2018-Feb-04 03:29N 35°28' E 139°43'0 0.0
2018-Feb-04 02:59N 35°28' E 139°43'0 0.0
2018-Feb-04 02:29N 35°28' E 139°43'0 0.0
2018-Feb-04 01:59N 35°28' E 139°43'0 0.0
2018-Feb-04 01:29N 35°28' E 139°43'0 0.0
2018-Feb-04 00:59N 35°28' E 139°43'0 0.0
2018-Feb-04 00:29N 35°28' E 139°43'0 0.0
2018-Feb-03 23:59N 35°28' E 139°43'0 0.0
2018-Feb-03 23:29N 35°28' E 139°43'0 0.0
2018-Feb-03 22:59N 35°28' E 139°43'0 0.0
2018-Feb-03 22:29N 35°28' E 139°43'0 0.0
2018-Feb-03 21:59N 35°28' E 139°43'0 0.0
2018-Feb-03 21:29N 35°28' E 139°43'0 0.0
2018-Feb-03 20:59N 35°28' E 139°43'0 0.0
2018-Feb-03 20:29N 35°28' E 139°43'0 0.0
2018-Feb-03 19:59N 35°28' E 139°43'0 0.0
2018-Feb-03 18:29N 35°28' E 139°43'0 0.0
2018-Feb-03 17:59N 35°28' E 139°43'0 0.0
2018-Feb-03 17:29N 35°28' E 139°43'0 0.0
2018-Feb-03 16:59N 35°28' E 139°43'0 0.0
2018-Feb-03 15:59N 35°28' E 139°43'0 0.0
2018-Feb-03 15:29N 35°28' E 139°43'0 0.0
2018-Feb-03 14:59N 35°28' E 139°43'0 0.0
2018-Feb-03 14:29N 35°28' E 139°43'0 0.0
2018-Feb-03 13:59N 35°28' E 139°43'0 0.0
2018-Feb-03 13:29N 35°28' E 139°43'0 0.0
2018-Feb-03 12:59N 35°28' E 139°43'0 0.0
2018-Feb-03 12:23N 35°28' E 139°43'0 0.0
2018-Feb-03 11:59N 35°28' E 139°43'0 0.0
2018-Feb-03 11:29N 35°28' E 139°43'0 0.0
2018-Feb-03 10:59N 35°28' E 139°43'0 0.0
2018-Feb-03 10:29N 35°28' E 139°43'0 0.0
2018-Feb-03 09:59N 35°28' E 139°43'0 0.0
2018-Feb-03 09:29N 35°28' E 139°43'0 0.0
2018-Feb-03 08:59N 35°28' E 139°43'0 0.0
2018-Feb-03 08:29N 35°28' E 139°43'0 0.0
2018-Feb-03 07:59N 35°28' E 139°43'0 0.0
2018-Feb-03 06:29N 35°28' E 139°43'0 0.0
2018-Feb-03 05:59N 35°28' E 139°43'0 0.0
2018-Feb-03 05:29N 35°28' E 139°43'0 0.0
2018-Feb-03 04:59N 35°28' E 139°43'0 0.0
2018-Feb-03 03:59N 35°28' E 139°43'0 0.0
2018-Feb-03 03:29N 35°28' E 139°43'0 0.0
2018-Feb-03 01:59N 35°28' E 139°43'0 0.0
2018-Feb-03 01:29N 35°28' E 139°43'0 0.0
2018-Feb-03 00:59N 35°28' E 139°43'0 0.0
2018-Feb-03 00:29N 35°28' E 139°43'0 0.0
2018-Feb-02 23:59N 35°28' E 139°43'0 0.0
2018-Feb-02 23:29N 35°28' E 139°43'0 0.0
2018-Feb-02 22:59N 35°28' E 139°43'0 0.0
2018-Feb-02 22:29N 35°28' E 139°43'0 0.0
2018-Feb-02 21:59N 35°28' E 139°43'0 0.0
2018-Feb-02 21:29N 35°28' E 139°43'0 0.0
2018-Feb-02 20:59N 35°28' E 139°43'0 0.0
2018-Feb-02 20:29N 35°28' E 139°43'0 0.0
2018-Feb-02 19:59N 35°28' E 139°43'0 0.0
2018-Feb-02 18:59N 35°28' E 139°43'0 0.0
2018-Feb-02 18:29N 35°28' E 139°43'0 0.0
2018-Feb-02 17:59N 35°28' E 139°43'0 0.0
2018-Feb-02 17:29N 35°28' E 139°43'0 0.0
2018-Feb-02 16:59N 35°28' E 139°43'0 0.0
2018-Feb-02 16:29N 35°28' E 139°43'0 0.0
2018-Feb-02 15:29N 35°28' E 139°43'0 0.0
2018-Feb-02 14:29N 35°28' E 139°43'0 0.0
2018-Feb-02 13:59N 35°28' E 139°43'0 0.0
2018-Feb-02 13:29N 35°28' E 139°43'0 0.0
2018-Feb-02 12:59N 35°28' E 139°43'0 0.0
2018-Feb-02 12:29N 35°28' E 139°43'0 0.0
2018-Feb-02 11:59N 35°28' E 139°43'0 0.0
2018-Feb-02 11:29N 35°28' E 139°43'0 0.0
2018-Feb-02 10:59N 35°28' E 139°43'0 0.0
2018-Feb-02 10:29N 35°28' E 139°43'0 0.0
2018-Feb-02 09:59N 35°28' E 139°43'0 0.0
2018-Feb-02 09:29N 35°28' E 139°43'0 0.0
2018-Feb-02 08:59N 35°28' E 139°43'0 0.0
2018-Feb-02 08:29N 35°28' E 139°43'0 0.0
2018-Feb-02 07:59N 35°28' E 139°43'0 0.0
2018-Feb-02 07:29N 35°28' E 139°43'0 0.0
2018-Feb-02 06:59N 35°28' E 139°43'0 0.0
2018-Feb-02 06:29N 35°28' E 139°43'0 0.0
2018-Feb-02 05:59N 35°28' E 139°43'0 0.0
2018-Feb-02 05:29N 35°28' E 139°43'0 0.0
2018-Feb-02 04:59N 35°28' E 139°43'0 0.0
2018-Feb-02 04:29N 35°28' E 139°43'0 0.0
2018-Feb-02 03:59N 35°28' E 139°43'0 0.0
2018-Feb-02 03:29N 35°28' E 139°43'0 0.0
2018-Feb-02 02:59N 35°28' E 139°43'0 0.0
2018-Feb-02 02:29N 35°28' E 139°43'0 0.0
2018-Feb-02 01:59N 35°28' E 139°43'0 0.0
2018-Feb-02 01:29N 35°28' E 139°43'0 0.0
2018-Feb-02 00:59N 35°28' E 139°43'0 0.0
2018-Feb-02 00:26N 35°28' E 139°43'0 0.0
2018-Feb-01 23:59N 35°28' E 139°43'0 0.0
2018-Feb-01 23:29N 35°28' E 139°43'0 0.0
2018-Feb-01 22:59N 35°28' E 139°43'0 0.0
2018-Feb-01 21:59N 35°28' E 139°43'0 0.0
2018-Feb-01 21:29N 35°28' E 139°43'0 0.0
2018-Feb-01 19:29N 35°28' E 139°43'0 0.0
2018-Feb-01 18:59N 35°28' E 139°43'0 0.0
2018-Feb-01 18:29N 35°28' E 139°43'0 0.0
2018-Feb-01 17:59N 35°28' E 139°43'0 0.0
2018-Feb-01 17:29N 35°28' E 139°43'0 0.0
2018-Feb-01 16:59N 35°28' E 139°43'0 0.0
2018-Feb-01 16:29N 35°28' E 139°43'0 0.0
2018-Feb-01 15:59N 35°28' E 139°43'0 0.0
2018-Feb-01 15:29N 35°28' E 139°43'0 0.0
2018-Feb-01 14:59N 35°28' E 139°43'0 0.0
2018-Feb-01 13:29N 35°28' E 139°43'0 0.0
2018-Feb-01 12:59N 35°28' E 139°43'0 0.0
2018-Feb-01 12:29N 35°28' E 139°43'0 0.0
2018-Feb-01 11:59N 35°28' E 139°43'0 0.0
2018-Feb-01 10:59N 35°28' E 139°43'0 0.0
2018-Feb-01 10:29N 35°28' E 139°43'0 0.0
2018-Feb-01 09:59N 35°28' E 139°43'0 0.0
2018-Feb-01 09:29N 35°28' E 139°43'0 0.0
2018-Feb-01 08:59N 35°28' E 139°43'0 0.0
2018-Feb-01 08:29N 35°28' E 139°43'0 0.0
2018-Feb-01 07:29N 35°28' E 139°43'0 0.0
2018-Feb-01 06:59N 35°28' E 139°43'0 0.0
2018-Feb-01 06:29N 35°28' E 139°43'0 0.0
2018-Feb-01 05:59N 35°28' E 139°43'0 0.0
2018-Feb-01 05:29N 35°28' E 139°43'0 0.0
2018-Feb-01 04:59N 35°28' E 139°43'0 0.0
2018-Feb-01 04:29N 35°28' E 139°43'0 0.0
2018-Feb-01 03:59N 35°28' E 139°43'0 0.0
2018-Feb-01 02:59N 35°28' E 139°43'0 0.0
2018-Feb-01 02:29N 35°28' E 139°43'0 0.0
2018-Feb-01 01:59N 35°28' E 139°43'0 0.0
2018-Feb-01 01:29N 35°28' E 139°43'0 0.0
2018-Feb-01 00:59N 35°28' E 139°43'0 0.0
2018-Feb-01 00:29N 35°28' E 139°43'0 0.0
2018-Jan-31 23:59N 35°28' E 139°43'0 0.0
2018-Jan-31 22:59N 35°28' E 139°43'0 0.0
2018-Jan-31 22:29N 35°28' E 139°43'0 0.0
2018-Jan-31 20:59N 35°28' E 139°43'0 0.0
2018-Jan-31 20:29N 35°28' E 139°43'0 0.0
2018-Jan-31 19:59N 35°28' E 139°43'0 0.0
2018-Jan-31 19:29N 35°28' E 139°43'0 0.0
2018-Jan-31 18:56N 35°28' E 139°43'0 0.0
2018-Jan-31 18:29N 35°28' E 139°43'0 0.0
2018-Jan-31 17:59N 35°28' E 139°43'0 0.0
2018-Jan-31 17:26N 35°28' E 139°43'0 0.0
2018-Jan-31 16:59N 35°28' E 139°43'0 0.0
2018-Jan-31 16:26N 35°28' E 139°43'0 0.0
2018-Jan-31 15:59N 35°28' E 139°43'0 0.0
2018-Jan-31 15:29N 35°28' E 139°43'0 0.0
2018-Jan-31 14:56N 35°28' E 139°43'0 0.0
2018-Jan-31 14:29N 35°28' E 139°43'0 0.0
2018-Jan-31 12:56N 35°28' E 139°43'0 0.0
2018-Jan-31 12:29N 35°28' E 139°43'0 0.0
2018-Jan-31 11:59N 35°28' E 139°43'0 0.0
2018-Jan-31 11:20N 35°28' E 139°43'0 0.0
2018-Jan-31 10:59N 35°28' E 139°43'0 0.0
2018-Jan-31 10:29N 35°28' E 139°43'0 0.0
2018-Jan-31 09:59N 35°28' E 139°43'0 0.0
2018-Jan-31 09:29N 35°28' E 139°43'0 0.0
2018-Jan-31 08:59N 35°28' E 139°43'0 0.0
2018-Jan-31 08:26N 35°28' E 139°43'0 0.0
2018-Jan-31 07:59N 35°28' E 139°43'0 0.0
2018-Jan-31 07:29N 35°28' E 139°43'0 0.0
2018-Jan-31 06:59N 35°28' E 139°43'0 0.0
2018-Jan-31 06:29N 35°28' E 139°43'0 0.0
2018-Jan-31 05:59N 35°28' E 139°43'0 0.0
2018-Jan-31 05:26N 35°28' E 139°43'0 0.0
2018-Jan-31 04:56N 35°28' E 139°43'0 0.0
2018-Jan-31 04:29N 35°28' E 139°43'0 0.0
2018-Jan-31 03:59N 35°28' E 139°43'0 0.0
2018-Jan-31 03:29N 35°28' E 139°43'0 0.0
2018-Jan-31 02:59N 35°28' E 139°43'0 0.0
2018-Jan-31 02:29N 35°28' E 139°43'0 0.0
2018-Jan-31 01:59N 35°28' E 139°43'0 0.0
2018-Jan-31 01:29N 35°28' E 139°43'0 0.0
2018-Jan-31 00:59N 35°28' E 139°43'0 0.0
2018-Jan-30 23:59N 35°28' E 139°43'0 0.0
2018-Jan-30 23:29N 35°28' E 139°43'0 0.0
2018-Jan-30 22:59N 35°28' E 139°43'0 0.0
2018-Jan-30 22:29N 35°28' E 139°43'0 0.0
2018-Jan-30 21:29N 35°28' E 139°43'0 0.0
2018-Jan-30 20:59N 35°28' E 139°43'0 0.0
2018-Jan-30 20:29N 35°28' E 139°43'0 0.0
2018-Jan-30 19:59N 35°28' E 139°43'0 0.0
2018-Jan-30 19:29N 35°28' E 139°43'0 0.0
2018-Jan-30 18:59N 35°28' E 139°43'0 0.0
2018-Jan-30 18:29N 35°28' E 139°43'0 0.0
2018-Jan-30 17:59N 35°28' E 139°43'0 0.0
2018-Jan-30 17:29N 35°28' E 139°43'0 0.0
2018-Jan-30 16:59N 35°28' E 139°43'0 0.0
2018-Jan-30 16:29N 35°28' E 139°43'0 0.0
2018-Jan-30 15:59N 35°28' E 139°43'0 0.0
2018-Jan-30 15:29N 35°28' E 139°43'0 0.0
2018-Jan-30 14:59N 35°28' E 139°43'0 0.0
2018-Jan-30 14:29N 35°28' E 139°43'0 0.0
2018-Jan-30 13:26N 35°28' E 139°43'0 0.0
2018-Jan-30 12:59N 35°28' E 139°43'0 0.0
2018-Jan-30 12:29N 35°28' E 139°43'0 0.0
2018-Jan-30 11:59N 35°28' E 139°43'0 0.0
2018-Jan-30 11:29N 35°28' E 139°43'0 0.0
2018-Jan-30 10:29N 35°28' E 139°43'0 0.0
2018-Jan-30 09:29N 35°28' E 139°43'0 0.0
2018-Jan-30 08:59N 35°28' E 139°43'0 0.0
2018-Jan-30 08:29N 35°28' E 139°43'0 0.0
2018-Jan-30 07:59N 35°28' E 139°43'0 0.0
2018-Jan-30 07:29N 35°28' E 139°43'0 0.0
2018-Jan-30 06:59N 35°28' E 139°43'0 0.0
2018-Jan-30 06:29N 35°28' E 139°43'0 0.0
2018-Jan-30 05:59N 35°28' E 139°43'0 0.0
2018-Jan-30 05:29N 35°28' E 139°43'0 0.0
2018-Jan-30 04:59N 35°28' E 139°43'0 0.0
2018-Jan-30 04:29N 35°28' E 139°43'0 0.0
2018-Jan-30 03:59N 35°28' E 139°43'0 0.0
2018-Jan-30 03:29N 35°28' E 139°43'0 0.0
2018-Jan-30 02:59N 35°28' E 139°43'0 0.0
2018-Jan-30 02:29N 35°28' E 139°43'0 0.0
2018-Jan-30 01:56N 35°28' E 139°43'0 0.0
2018-Jan-30 01:29N 35°28' E 139°43'0 0.0
2018-Jan-30 00:59N 35°28' E 139°43'0 0.0
2018-Jan-30 00:29N 35°28' E 139°43'0 0.0
2018-Jan-29 23:59N 35°28' E 139°43'0 0.0
2018-Jan-29 23:29N 35°28' E 139°43'0 0.0
2018-Jan-29 22:56N 35°28' E 139°43'0 0.0
2018-Jan-29 22:29N 35°28' E 139°43'0 0.0
2018-Jan-29 21:59N 35°28' E 139°43'0 0.0
2018-Jan-29 21:30N 35°28' E 139°43'0 0.0
2018-Jan-29 20:59N 35°28' E 139°43'0 0.0
2018-Jan-29 20:29N 35°28' E 139°43'0 0.1
2018-Jan-29 19:59N 35°28' E 139°43'0 0.0
2018-Jan-29 19:29N 35°28' E 139°43'0 0.1
2018-Jan-29 18:59N 35°28' E 139°43'0 0.0
2018-Jan-29 18:29N 35°28' E 139°43'0 0.1
2018-Jan-29 17:59N 35°28' E 139°43'0 0.0
2018-Jan-29 17:29N 35°28' E 139°43'0 0.0
2018-Jan-29 16:59N 35°28' E 139°43'0 0.0
2018-Jan-29 16:29N 35°28' E 139°43'0 0.0
2018-Jan-29 15:59N 35°28' E 139°43'0 0.0
2018-Jan-29 15:29N 35°28' E 139°43'0 0.1
2018-Jan-29 14:59N 35°28' E 139°43'0 0.1
2018-Jan-29 14:29N 35°28' E 139°43'0 0.0
2018-Jan-29 13:59N 35°28' E 139°43'0 0.0
2018-Jan-29 13:29N 35°28' E 139°43'0 0.0
2018-Jan-29 12:59N 35°28' E 139°43'  

Dump ship's entire track history